Аэропорт: Сары-Арка. Караганда

ICAO: UAKK

METAR:
2021-07-28 12:30:00
UAKK 281230Z 02002MPS 350V110 CAVOK 24/02 Q1010 R05/0///70 NOSIG RMK QFE710/0947
METAR:
2021-07-28 11:00:00
TAF UAKK 281100Z 2812/2912 VRB02MPS 9999 SCT030 BKN100 TX26/2911Z TN07/2823Z TEMPO 2908/2912 29005MPS SCT030CB